Impacts METAR Board
IDs:

KDLS - The Dalles Muni, OR, US

Updated at: 1200 UTC 20 Oct 2021
Potential Impact None Slight Moderate High
Time 20/00Z 20/01Z 20/02Z 20/03Z 20/04Z 20/05Z 20/06Z 20/07Z 20/08Z 20/09Z 20/10Z 20/11Z 20/12Z
Temp63 61 60 55 56 54 54 54 53 52 54 55 53
Dewpt39 41 40 41 40 40 41 40 40 43 45 46 46
Altim29.77 29.75 29.74 29.73 29.72 29.72 29.72 29.72 29.72 29.72 29.74 29.72 29.72
VIS10 10 10 10 10 10 10 10 10 10 10 10 10
CIG-- -- -- -- -- -- -- -- -- 85 90 95 90
CoverCLRCLRCLRCLRCLRCLRCLRCLRSCTOVCOVCOVCOVC
FltCatVFRVFRVFRVFRVFRVFRVFRVFRVFRVFRVFRVFRVFR
WX-------------------RA------
WDir01301400000040200707090
WSpd0 4 3 0 0 0 0 0 5 5 11 7 3
WGst-- -- -- -- -- -- -- -- -- -- -- -- --
Raw hourly METARs
KDLS 192353Z AUTO 00000KT 10SM CLR 17/04 A2977 RMK AO2 SLP080 T01720039 10178 20094 56028
KDLS 200053Z AUTO 13004KT 10SM CLR 16/05 A2975 RMK AO2 SLP075 T01610050
KDLS 200153Z AUTO 14003KT 10SM CLR 16/04 A2974 RMK AO2 SLP072 T01560044
KDLS 200253Z AUTO 00000KT 10SM CLR 13/05 A2973 RMK AO2 SLP070 T01280050 56011
KDLS 200353Z AUTO 00000KT 10SM CLR 13/04 A2972 RMK AO2 SLP065 T01330044
KDLS 200453Z AUTO 00000KT 10SM CLR 12/04 A2972 RMK AO2 SLP066 T01220044
KDLS 200553Z AUTO 00000KT 10SM CLR 12/05 A2972 RMK AO2 SLP066 T01220050 10172 20111 56003
KDLS 200653Z AUTO 00000KT 10SM CLR 12/04 A2972 RMK AO2 SLP063 T01220044
KDLS 200753Z AUTO 04005KT 10SM SCT095 12/04 A2972 RMK AO2 SLP066 T01170044 401780022
KDLS 200853Z AUTO 20005KT 10SM -RA OVC085 11/06 A2972 RMK AO2 RAB12 SLP066 P0000 60000 T01110061 53000
KDLS 200953Z AUTO 07011KT 10SM OVC090 12/07 A2974 RMK AO2 RAE34 SLP070 P0001 T01220072
KDLS 201053Z AUTO 07007KT 10SM OVC095 13/08 A2972 RMK AO2 RAB00E15 SLP062 P0001 T01280078
KDLS 201153Z AUTO 09003KT 10SM BKN090 OVC120 12/08 A2972 RMK AO2 SLP064 60002 70002 T01170078 10133 20106 58002



Page loaded:  12:45 UTC  |   05:45 AM Pacific  |   06:45 AM Mountain  |   07:45 AM Central  |   08:45 AM Eastern

 

ADVISORIES

FORECASTS

FORECASTS

OBSERVATIONS

USER TOOLS

ABOUT US